Terminal Aerodrome Forecast
Issued by NWS

Home | Current Version | Previous Version | Text Only | Print | Product List | Glossary On
Versions: 1 2 3 4 5 6 7 8 9 10 11 12 13 14 15 16
000
FTUS43 KILX 310520
TAFCMI
TAF
KCMI 310520Z 3106/0106 26004KT P6SM SKC
     FM311500 28008KT P6SM FEW050
     FM312100 28012G18KT P6SM VCTS FEW030CB BKN040
     FM010100 28005KT P6SM SKC=

USA.gov is the U.S. government's official web portal to all federal, state and local government web resources and services.